createdAt,value
2022-08-24T00:00:47.644Z,22.61
2022-08-24T00:03:17.454Z,22.60
2022-08-24T00:05:47.581Z,22.57
2022-08-24T00:08:17.924Z,22.55
2022-08-24T00:10:50.324Z,22.54
2022-08-24T00:13:20.349Z,22.50
2022-08-24T00:15:50.391Z,22.46
2022-08-24T00:18:20.161Z,22.40
2022-08-24T00:20:50.052Z,22.37
2022-08-24T00:23:19.868Z,22.34
2022-08-24T00:25:52.265Z,22.30
2022-08-24T00:28:22.102Z,22.26
2022-08-24T00:30:51.945Z,22.23
2022-08-24T00:33:22.455Z,22.17
2022-08-24T00:35:52.208Z,22.09
2022-08-24T00:38:22.096Z,22.02
2022-08-24T00:41:00.111Z,21.98
2022-08-24T00:43:29.861Z,21.95
2022-08-24T00:46:19.313Z,21.95
2022-08-24T00:48:54.469Z,21.93
2022-08-24T00:51:29.357Z,21.92
2022-08-24T00:54:04.199Z,21.88
2022-08-24T00:56:44.959Z,21.87
2022-08-24T00:59:19.423Z,21.83
2022-08-24T01:01:51.048Z,21.82
2022-08-24T01:04:29.207Z,21.80
2022-08-24T01:06:59.679Z,21.77
2022-08-24T01:09:30.996Z,21.74
2022-08-24T01:12:03.949Z,21.72
2022-08-24T01:14:34.123Z,21.70
2022-08-24T01:17:16.315Z,21.68
2022-08-24T01:19:50.309Z,21.67
2022-08-24T01:22:33.664Z,21.66
2022-08-24T01:25:07.264Z,21.65
2022-08-24T01:27:37.742Z,21.64
2022-08-24T01:30:13.538Z,21.63
2022-08-24T01:32:44.082Z,21.63
2022-08-24T01:35:13.817Z,21.60
2022-08-24T01:37:43.739Z,21.59
2022-08-24T01:40:16.432Z,21.59
2022-08-24T01:42:51.466Z,21.57
2022-08-24T01:45:22.103Z,21.56
2022-08-24T01:47:51.905Z,21.53
2022-08-24T01:50:22.144Z,21.50
2022-08-24T01:53:04.785Z,21.47
2022-08-24T01:55:38.238Z,21.45
2022-08-24T01:58:08.918Z,21.41
2022-08-24T02:00:40.734Z,21.41
2022-08-24T02:03:10.715Z,21.37
2022-08-24T02:05:40.763Z,21.35
2022-08-24T02:08:10.689Z,21.32
2022-08-24T02:10:45.904Z,21.30
2022-08-24T02:13:22.791Z,21.28
2022-08-24T02:15:52.531Z,21.26
2022-08-24T02:18:22.470Z,21.25
2022-08-24T02:20:53.382Z,21.24
2022-08-24T02:23:23.260Z,21.21
2022-08-24T02:25:55.616Z,21.20
2022-08-24T02:28:26.202Z,21.17
2022-08-24T02:30:56.080Z,21.15
2022-08-24T02:33:26.252Z,21.11
2022-08-24T02:35:56.392Z,21.10
2022-08-24T02:38:26.380Z,21.08
2022-08-24T02:40:58.844Z,21.06
2022-08-24T02:43:28.921Z,21.04
2022-08-24T02:46:00.500Z,21.02
2022-08-24T02:48:30.316Z,21.01
2022-08-24T02:51:00.047Z,20.98
2022-08-24T02:53:29.773Z,20.96
2022-08-24T02:56:02.127Z,20.95
2022-08-24T02:58:31.837Z,20.93
2022-08-24T03:01:01.570Z,20.90
2022-08-24T03:03:33.002Z,20.87
2022-08-24T03:06:03.503Z,20.84
2022-08-24T03:08:34.579Z,20.81
2022-08-24T03:11:08.788Z,20.78
2022-08-24T03:13:39.829Z,20.75
2022-08-24T03:16:10.464Z,20.71
2022-08-24T03:18:40.278Z,20.69
2022-08-24T03:21:10.759Z,20.67
2022-08-24T03:23:40.513Z,20.64
2022-08-24T03:26:13.050Z,20.63
2022-08-24T03:28:45.133Z,20.60
2022-08-24T03:31:15.313Z,20.60
2022-08-24T03:33:45.059Z,20.58
2022-08-24T03:36:14.826Z,20.57
2022-08-24T03:38:44.931Z,20.55
2022-08-24T03:41:17.265Z,20.52
2022-08-24T03:43:50.138Z,20.51
2022-08-24T03:46:25.235Z,20.49
2022-08-24T03:48:55.695Z,20.48
2022-08-24T03:51:27.436Z,20.47
2022-08-24T03:53:58.911Z,20.46
2022-08-24T03:56:31.687Z,20.46
2022-08-24T03:59:01.453Z,20.44
2022-08-24T04:01:31.631Z,20.43
2022-08-24T04:04:01.625Z,20.43
2022-08-24T04:06:31.861Z,20.42
2022-08-24T04:09:01.608Z,20.42
2022-08-24T04:11:34.759Z,20.41
2022-08-24T04:14:08.383Z,20.40
2022-08-24T04:16:40.359Z,20.37
2022-08-24T04:19:10.323Z,20.38
2022-08-24T04:21:40.637Z,20.38
2022-08-24T04:24:12.286Z,20.37
2022-08-24T04:26:46.195Z,20.36
2022-08-24T04:29:19.512Z,20.35
2022-08-24T04:31:50.050Z,20.35
2022-08-24T04:34:20.661Z,20.32
2022-08-24T04:36:50.464Z,20.32
2022-08-24T04:39:20.201Z,20.32
2022-08-24T04:41:52.924Z,20.32
2022-08-24T04:44:22.853Z,20.30
2022-08-24T04:46:52.593Z,20.28
2022-08-24T04:49:22.412Z,20.26
2022-08-24T04:51:52.304Z,20.25
2022-08-24T04:54:22.212Z,20.29
2022-08-24T04:56:54.551Z,20.39
2022-08-24T04:59:24.267Z,20.50
2022-08-24T05:01:54.456Z,20.64
2022-08-24T05:04:24.415Z,20.80
2022-08-24T05:06:54.473Z,20.98
2022-08-24T05:09:24.389Z,21.18
2022-08-24T05:11:57.532Z,21.38
2022-08-24T05:14:28.932Z,21.51
2022-08-24T05:16:59.280Z,21.58
2022-08-24T05:19:29.001Z,21.58
2022-08-24T05:21:58.724Z,21.55
2022-08-24T05:24:28.683Z,21.54
2022-08-24T05:27:01.266Z,21.51
2022-08-24T05:29:33.796Z,21.48
2022-08-24T05:32:04.645Z,21.46
2022-08-24T05:34:34.473Z,21.45
2022-08-24T05:37:04.922Z,21.44
2022-08-24T05:39:34.811Z,21.43
2022-08-24T05:42:08.026Z,21.42
2022-08-24T05:44:37.748Z,21.41
2022-08-24T05:47:07.976Z,21.42
2022-08-24T05:49:41.372Z,21.42
2022-08-24T05:52:11.617Z,21.42
2022-08-24T05:54:41.354Z,21.42
2022-08-24T05:57:16.265Z,21.43
2022-08-24T05:59:45.996Z,21.44
2022-08-24T06:02:16.014Z,21.44
2022-08-24T06:04:45.938Z,21.49
2022-08-24T06:07:16.665Z,21.59
2022-08-24T06:09:46.524Z,21.73
2022-08-24T06:12:18.969Z,21.83
2022-08-24T06:14:50.374Z,21.92
2022-08-24T06:17:20.242Z,21.97
2022-08-24T06:19:50.026Z,22.02
2022-08-24T06:22:19.755Z,22.16
2022-08-24T06:25:01.888Z,22.36
2022-08-24T06:27:34.333Z,22.61
2022-08-24T06:30:09.698Z,22.87
2022-08-24T06:32:40.140Z,23.07
2022-08-24T06:35:11.335Z,23.25
2022-08-24T06:37:41.582Z,23.39
2022-08-24T06:40:13.362Z,23.50
2022-08-24T06:42:45.892Z,23.62
2022-08-24T06:45:15.906Z,23.74
2022-08-24T06:47:45.885Z,23.85
2022-08-24T06:50:15.792Z,23.98
2022-08-24T06:52:45.517Z,24.10
2022-08-24T06:55:15.311Z,24.29
2022-08-24T06:57:52.142Z,24.49
2022-08-24T07:00:23.750Z,24.71
2022-08-24T07:02:54.301Z,24.96
2022-08-24T07:05:24.226Z,25.22
2022-08-24T07:07:53.964Z,25.48
2022-08-24T07:10:23.943Z,25.76
2022-08-24T07:13:00.788Z,26.06
2022-08-24T07:15:30.730Z,26.34
2022-08-24T07:18:00.835Z,26.60
2022-08-24T07:20:33.080Z,26.83
2022-08-24T07:23:02.990Z,27.05
2022-08-24T07:25:33.739Z,27.25
2022-08-24T07:28:10.120Z,27.44
2022-08-24T07:30:41.312Z,27.62
2022-08-24T07:33:11.238Z,27.78
2022-08-24T07:35:42.139Z,27.93
2022-08-24T07:38:15.085Z,28.08
2022-08-24T07:41:14.510Z,28.27
2022-08-24T07:43:43.194Z,28.45
2022-08-24T07:46:13.707Z,28.55
2022-08-24T07:48:43.522Z,28.63
2022-08-24T07:51:15.267Z,28.76
2022-08-24T07:53:53.608Z,28.85
2022-08-24T07:56:24.171Z,28.96
2022-08-24T07:58:56.556Z,29.12
2022-08-24T08:01:27.369Z,29.16
2022-08-24T08:03:57.147Z,29.15
2022-08-24T08:06:27.006Z,29.13
2022-08-24T08:08:56.812Z,29.14
2022-08-24T08:11:26.902Z,29.22
2022-08-24T08:13:59.253Z,29.32
2022-08-24T08:16:29.071Z,29.43
2022-08-24T08:19:14.282Z,29.51
2022-08-24T08:21:57.548Z,29.57
2022-08-24T08:24:27.365Z,29.63
2022-08-24T08:26:57.918Z,29.60
2022-08-24T08:29:31.581Z,29.61
2022-08-24T08:32:01.617Z,29.64
2022-08-24T08:34:32.340Z,29.68
2022-08-24T08:37:04.058Z,29.75
2022-08-24T08:39:35.108Z,29.87
2022-08-24T08:42:34.662Z,29.95
2022-08-24T08:45:18.456Z,30.01
2022-08-24T08:48:35.881Z,30.12
2022-08-24T08:51:29.065Z,30.25
2022-08-24T08:54:17.626Z,30.38
2022-08-24T08:57:00.223Z,30.49
2022-08-24T08:59:49.153Z,30.62
2022-08-24T09:02:41.482Z,30.73
2022-08-24T09:05:40.614Z,30.83
2022-08-24T09:08:22.448Z,30.91
2022-08-24T09:10:59.861Z,30.98
2022-08-24T09:13:46.876Z,31.04
2022-08-24T09:16:31.669Z,31.07
2022-08-24T09:19:23.299Z,31.12
2022-08-24T09:22:13.248Z,31.19
2022-08-24T09:25:10.250Z,31.25
2022-08-24T09:27:50.211Z,31.29
2022-08-24T09:30:26.443Z,31.28
2022-08-24T09:33:07.932Z,31.24
2022-08-24T09:36:03.124Z,31.26
2022-08-24T09:38:53.369Z,31.28
2022-08-24T09:42:01.266Z,31.24
2022-08-24T09:45:04.063Z,31.21
2022-08-24T09:48:06.445Z,31.21
2022-08-24T09:51:05.960Z,31.16
2022-08-24T09:54:05.475Z,31.11
2022-08-24T09:57:11.634Z,31.01
2022-08-24T10:00:06.221Z,30.93
2022-08-24T10:03:02.565Z,30.86
2022-08-24T10:05:53.688Z,30.78
2022-08-24T10:08:34.736Z,30.71
2022-08-24T10:11:13.858Z,30.68
2022-08-24T10:13:55.556Z,30.65
2022-08-24T10:16:36.194Z,30.66
2022-08-24T10:19:24.223Z,30.66
2022-08-24T10:22:05.384Z,30.66
2022-08-24T10:24:59.103Z,30.66
2022-08-24T10:27:48.360Z,30.66
2022-08-24T10:30:49.087Z,30.66
2022-08-24T10:33:24.412Z,30.61
2022-08-24T10:36:20.879Z,30.56
2022-08-24T10:39:06.383Z,30.51
2022-08-24T10:42:33.096Z,30.51
2022-08-24T10:45:13.043Z,30.53
2022-08-24T10:48:02.747Z,30.58
2022-08-24T10:50:56.149Z,30.62
2022-08-24T10:53:30.852Z,30.67
2022-08-24T10:56:13.744Z,30.72
2022-08-24T10:59:06.930Z,30.75
2022-08-24T11:01:39.007Z,30.75
2022-08-24T11:04:13.830Z,30.77
2022-08-24T11:06:46.263Z,30.78
2022-08-24T11:09:19.935Z,30.80
2022-08-24T11:11:52.478Z,30.83
2022-08-24T11:14:32.134Z,30.89
2022-08-24T11:17:18.958Z,30.96
2022-08-24T11:19:52.443Z,31.03
2022-08-24T11:22:33.511Z,31.09
2022-08-24T11:25:07.812Z,31.10
2022-08-24T11:27:40.748Z,31.03
2022-08-24T11:30:16.053Z,30.87
2022-08-24T11:32:47.852Z,30.61
2022-08-24T11:35:27.643Z,30.36
2022-08-24T11:37:59.804Z,30.11
2022-08-24T11:40:36.771Z,29.84
2022-08-24T11:43:19.369Z,29.60
2022-08-24T11:46:08.396Z,29.39
2022-08-24T11:48:49.527Z,29.27
2022-08-24T11:51:34.948Z,29.20
2022-08-24T11:54:14.359Z,29.11
2022-08-24T11:56:52.090Z,29.06
2022-08-24T11:59:42.611Z,29.00
2022-08-24T12:02:19.469Z,28.95
2022-08-24T12:04:59.499Z,28.89
2022-08-24T12:07:51.139Z,28.82
2022-08-24T12:10:32.765Z,28.73
2022-08-24T12:13:09.356Z,28.70
2022-08-24T12:15:51.447Z,28.70
2022-08-24T12:18:29.640Z,28.77
2022-08-24T12:21:01.037Z,28.80
2022-08-24T12:23:40.484Z,28.81
2022-08-24T12:26:15.298Z,28.81
2022-08-24T12:28:54.219Z,28.75
2022-08-24T12:31:30.669Z,28.62
2022-08-24T12:34:09.457Z,28.58
2022-08-24T12:36:46.219Z,28.58
2022-08-24T12:39:24.492Z,28.62
2022-08-24T12:42:14.546Z,28.67
2022-08-24T12:44:53.950Z,28.65
2022-08-24T12:47:29.749Z,28.64
2022-08-24T12:50:06.451Z,28.58
2022-08-24T12:53:04.343Z,28.55
2022-08-24T12:56:00.671Z,28.51
2022-08-24T12:58:55.159Z,28.49
2022-08-24T13:01:29.816Z,28.43
2022-08-24T13:04:10.303Z,28.41
2022-08-24T13:06:45.464Z,28.32
2022-08-24T13:09:29.568Z,28.25
2022-08-24T13:12:38.188Z,28.27
2022-08-24T13:15:50.188Z,28.27
2022-08-24T13:18:55.213Z,28.37
2022-08-24T13:21:41.873Z,28.47
2022-08-24T13:24:44.916Z,28.50
2022-08-24T13:27:50.795Z,28.47
2022-08-24T13:30:38.242Z,28.44
2022-08-24T13:33:13.637Z,28.40
2022-08-24T13:36:09.052Z,28.27
2022-08-24T13:38:57.973Z,28.20
2022-08-24T13:41:48.228Z,28.18
2022-08-24T13:44:28.601Z,28.14
2022-08-24T13:47:11.105Z,28.13
2022-08-24T13:50:02.022Z,28.14
2022-08-24T13:52:42.528Z,28.11
2022-08-24T13:55:31.741Z,28.12
2022-08-24T13:58:17.309Z,28.16
2022-08-24T14:00:54.420Z,28.19
2022-08-24T14:04:07.267Z,28.18
2022-08-24T14:06:52.758Z,28.11
2022-08-24T14:09:37.588Z,28.10
2022-08-24T14:12:20.487Z,28.06
2022-08-24T14:15:05.475Z,28.04
2022-08-24T14:17:53.804Z,28.00
2022-08-24T14:21:00.622Z,28.02
2022-08-24T14:23:48.307Z,28.12
2022-08-24T14:26:52.730Z,28.22
2022-08-24T14:29:37.652Z,28.32
2022-08-24T14:32:31.340Z,28.40
2022-08-24T14:35:31.058Z,28.46
2022-08-24T14:38:24.234Z,28.45
2022-08-24T14:41:09.383Z,28.43
2022-08-24T14:44:06.413Z,28.41
2022-08-24T14:46:43.630Z,28.44
2022-08-24T14:49:21.816Z,28.44
2022-08-24T14:52:04.096Z,28.43
2022-08-24T14:54:51.063Z,28.41
2022-08-24T14:57:42.171Z,28.39
2022-08-24T15:00:17.844Z,28.43
2022-08-24T15:03:15.270Z,28.42
2022-08-24T15:06:15.912Z,28.33
2022-08-24T15:08:45.643Z,28.23
2022-08-24T15:11:17.955Z,28.17
2022-08-24T15:13:53.545Z,28.13
2022-08-24T15:16:28.459Z,28.03
2022-08-24T15:19:07.691Z,27.99
2022-08-24T15:21:50.215Z,27.98
2022-08-24T15:24:37.771Z,28.01
2022-08-24T15:27:24.084Z,27.99
2022-08-24T15:30:00.585Z,27.95
2022-08-24T15:32:45.271Z,27.92
2022-08-24T15:35:26.911Z,27.91
2022-08-24T15:37:58.101Z,27.91
2022-08-24T15:40:30.156Z,27.94
2022-08-24T15:43:04.051Z,27.96
2022-08-24T15:45:39.321Z,27.96
2022-08-24T15:48:09.220Z,27.94
2022-08-24T15:50:45.379Z,27.89
2022-08-24T15:53:32.208Z,27.80
2022-08-24T15:56:09.723Z,27.76
2022-08-24T15:58:41.758Z,27.74
2022-08-24T16:01:46.528Z,27.76
2022-08-24T16:04:37.542Z,27.67
2022-08-24T16:07:07.528Z,27.65
2022-08-24T16:09:40.553Z,27.63
2022-08-24T16:12:16.468Z,27.58
2022-08-24T16:14:50.798Z,27.52
2022-08-24T16:17:30.652Z,27.47
2022-08-24T16:20:02.728Z,27.40
2022-08-24T16:22:39.435Z,27.37
2022-08-24T16:25:19.588Z,27.31
2022-08-24T16:28:01.810Z,27.27
2022-08-24T16:30:49.250Z,27.25
2022-08-24T16:33:44.520Z,27.18
2022-08-24T16:36:18.139Z,27.10
2022-08-24T16:38:50.838Z,27.01
2022-08-24T16:41:23.155Z,26.93
2022-08-24T16:43:53.599Z,26.86
2022-08-24T16:46:26.111Z,26.82
2022-08-24T16:48:59.122Z,26.75
2022-08-24T16:51:28.889Z,26.72
2022-08-24T16:53:58.661Z,26.67
2022-08-24T16:56:28.457Z,26.63
2022-08-24T16:58:58.812Z,26.60
2022-08-24T17:01:28.912Z,26.55
2022-08-24T17:04:01.303Z,26.55
2022-08-24T17:06:31.061Z,26.52
2022-08-24T17:09:01.344Z,26.49
2022-08-24T17:11:31.128Z,26.48
2022-08-24T17:14:01.135Z,26.46
2022-08-24T17:16:31.077Z,26.39
2022-08-24T17:19:04.532Z,26.32
2022-08-24T17:21:34.477Z,26.25
2022-08-24T17:24:04.205Z,26.22
2022-08-24T17:26:34.763Z,26.21
2022-08-24T17:29:07.387Z,26.19
2022-08-24T17:31:37.547Z,26.18
2022-08-24T17:34:10.848Z,26.15
2022-08-24T17:36:43.632Z,26.12
2022-08-24T17:39:15.012Z,26.10
2022-08-24T17:41:45.003Z,26.04
2022-08-24T17:44:20.847Z,26.00
2022-08-24T17:46:53.305Z,25.96
2022-08-24T17:49:26.140Z,25.95
2022-08-24T17:51:56.172Z,25.96
2022-08-24T17:54:28.460Z,25.95
2022-08-24T17:56:58.912Z,25.95
2022-08-24T17:59:33.372Z,25.92
2022-08-24T18:02:05.377Z,25.87
2022-08-24T18:04:38.525Z,25.82
2022-08-24T18:07:12.464Z,25.74
2022-08-24T18:09:46.190Z,25.68
2022-08-24T18:12:16.275Z,25.61
2022-08-24T18:14:46.210Z,25.55
2022-08-24T18:17:22.580Z,25.48
2022-08-24T18:19:56.134Z,25.42
2022-08-24T18:22:25.868Z,25.35
2022-08-24T18:24:55.655Z,25.28
2022-08-24T18:27:30.424Z,25.22
2022-08-24T18:30:02.664Z,25.17
2022-08-24T18:32:37.585Z,25.12
2022-08-24T18:35:12.353Z,25.07
2022-08-24T18:37:42.278Z,25.01
2022-08-24T18:40:20.340Z,24.96
2022-08-24T18:42:52.092Z,24.91
2022-08-24T18:45:22.200Z,24.86
2022-08-24T18:47:53.114Z,24.80
2022-08-24T18:50:28.939Z,24.75
2022-08-24T18:52:59.236Z,24.75
2022-08-24T18:55:29.644Z,24.76
2022-08-24T18:57:59.607Z,24.76
2022-08-24T19:00:29.348Z,24.77
2022-08-24T19:03:01.749Z,24.76
2022-08-24T19:05:34.173Z,24.75
2022-08-24T19:08:04.381Z,24.71
2022-08-24T19:10:39.238Z,24.66
2022-08-24T19:13:15.345Z,24.58
2022-08-24T19:15:46.798Z,24.50
2022-08-24T19:18:17.421Z,24.41
2022-08-24T19:20:52.492Z,24.37
2022-08-24T19:23:24.910Z,24.32
2022-08-24T19:25:55.002Z,24.26
2022-08-24T19:28:25.336Z,24.20
2022-08-24T19:30:58.548Z,24.16
2022-08-24T19:33:31.203Z,24.13
2022-08-24T19:36:03.702Z,24.13
2022-08-24T19:38:33.566Z,24.12
2022-08-24T19:41:11.800Z,24.09
2022-08-24T19:43:56.126Z,24.06
2022-08-24T19:46:25.903Z,23.99
2022-08-24T19:48:56.253Z,23.96
2022-08-24T19:51:28.720Z,23.90
2022-08-24T19:53:58.569Z,23.85
2022-08-24T19:56:28.309Z,23.82
2022-08-24T19:59:03.985Z,23.79
2022-08-24T20:01:36.704Z,23.74
2022-08-24T20:04:09.010Z,23.73
2022-08-24T20:06:42.454Z,23.72
2022-08-24T20:09:12.501Z,23.71
2022-08-24T20:11:42.429Z,23.72
2022-08-24T20:14:12.201Z,23.73
2022-08-24T20:16:44.388Z,23.73
2022-08-24T20:19:15.124Z,23.73
2022-08-24T20:21:48.118Z,23.72
2022-08-24T20:24:18.326Z,23.72
2022-08-24T20:26:51.466Z,23.70
2022-08-24T20:29:21.527Z,23.68
2022-08-24T20:31:55.937Z,23.67
2022-08-24T20:34:25.879Z,23.65
2022-08-24T20:37:00.330Z,23.64
2022-08-24T20:39:30.938Z,23.62
2022-08-24T20:42:00.676Z,23.61
2022-08-24T20:44:30.721Z,23.58
2022-08-24T20:47:01.342Z,23.56
2022-08-24T20:49:31.572Z,23.55
2022-08-24T20:52:04.173Z,23.54
2022-08-24T20:54:38.925Z,23.52
2022-08-24T20:57:11.430Z,23.49
2022-08-24T20:59:41.192Z,23.50
2022-08-24T21:02:11.185Z,23.50
2022-08-24T21:04:41.029Z,23.46
2022-08-24T21:07:15.485Z,23.47
2022-08-24T21:09:45.208Z,23.44
2022-08-24T21:12:14.923Z,23.44
2022-08-24T21:14:44.638Z,23.43
2022-08-24T21:17:14.391Z,23.43
2022-08-24T21:19:46.282Z,23.43
2022-08-24T21:22:18.661Z,23.43
2022-08-24T21:24:48.397Z,23.44
2022-08-24T21:27:19.193Z,23.44
2022-08-24T21:29:48.940Z,23.45
2022-08-24T21:32:31.076Z,23.48
2022-08-24T21:35:00.853Z,23.50
2022-08-24T21:37:33.250Z,23.49
2022-08-24T21:40:03.355Z,23.49
2022-08-24T21:42:33.279Z,23.48
2022-08-24T21:45:03.540Z,23.49
2022-08-24T21:47:33.308Z,23.46
2022-08-24T21:50:03.044Z,23.43
2022-08-24T21:52:35.484Z,23.43
2022-08-24T21:55:05.249Z,23.43
2022-08-24T21:57:35.001Z,23.41
2022-08-24T22:00:05.072Z,23.39
2022-08-24T22:02:34.842Z,23.38
2022-08-24T22:05:04.708Z,23.39
2022-08-24T22:07:37.038Z,23.39
2022-08-24T22:10:08.245Z,23.37
2022-08-24T22:12:38.251Z,23.35
2022-08-24T22:15:11.703Z,23.35
2022-08-24T22:17:41.720Z,23.35
2022-08-24T22:20:23.123Z,23.35
2022-08-24T22:22:56.825Z,23.36
2022-08-24T22:25:26.632Z,23.37
2022-08-24T22:27:56.349Z,23.38
2022-08-24T22:30:26.160Z,23.38
2022-08-24T22:32:55.979Z,23.37
2022-08-24T22:35:25.708Z,23.39
2022-08-24T22:37:58.129Z,23.39
2022-08-24T22:40:27.872Z,23.39
2022-08-24T22:42:57.622Z,23.35
2022-08-24T22:45:27.471Z,23.31
2022-08-24T22:47:57.185Z,23.25
2022-08-24T22:50:26.939Z,23.22
2022-08-24T22:52:59.333Z,23.18
2022-08-24T22:55:29.282Z,23.15
2022-08-24T22:57:59.020Z,23.13
2022-08-24T23:00:29.796Z,23.13
2022-08-24T23:02:59.662Z,23.10
2022-08-24T23:05:29.510Z,23.08
2022-08-24T23:08:02.045Z,23.10
2022-08-24T23:10:31.758Z,23.10
2022-08-24T23:13:01.613Z,23.10
2022-08-24T23:15:31.513Z,23.09
2022-08-24T23:18:21.231Z,23.09
2022-08-24T23:20:48.591Z,23.07
2022-08-24T23:23:21.477Z,23.04
2022-08-24T23:25:51.217Z,23.04
2022-08-24T23:28:21.043Z,22.99
2022-08-24T23:30:50.822Z,22.97
2022-08-24T23:33:20.594Z,22.97
2022-08-24T23:35:50.329Z,22.96
2022-08-24T23:38:22.839Z,22.95
2022-08-24T23:40:52.857Z,22.92
2022-08-24T23:43:22.571Z,22.92
2022-08-24T23:45:52.308Z,22.92
2022-08-24T23:48:22.073Z,22.87
2022-08-24T23:50:51.805Z,22.84
2022-08-24T23:53:24.320Z,22.83
2022-08-24T23:55:54.708Z,22.81
2022-08-24T23:58:24.551Z,22.81
